sensor_id;sensor_type;location;lat;lon;timestamp;temperature;humidity
13256;DHT22;37913;48.370;10.930;2023-01-23T00:02:16;-1.80;99.90
13256;DHT22;37913;48.370;10.930;2023-01-23T00:04:43;-1.80;99.90
13256;DHT22;37913;48.370;10.930;2023-01-23T00:07:10;-1.40;99.90
13256;DHT22;37913;48.370;10.930;2023-01-23T00:09:38;-1.70;99.90
13256;DHT22;37913;48.370;10.930;2023-01-23T00:12:05;-1.10;99.90
13256;DHT22;37913;48.370;10.930;2023-01-23T00:14:32;-1.80;99.90
13256;DHT22;37913;48.370;10.930;2023-01-23T00:16:59;-1.60;99.90
13256;DHT22;37913;48.370;10.930;2023-01-23T00:19:26;-1.50;99.90
13256;DHT22;37913;48.370;10.930;2023-01-23T00:21:53;-1.70;99.90
13256;DHT22;37913;48.370;10.930;2023-01-23T00:24:20;-1.20;99.90
13256;DHT22;37913;48.370;10.930;2023-01-23T00:26:48;-0.40;99.90
13256;DHT22;37913;48.370;10.930;2023-01-23T00:29:15;-1.40;99.90
13256;DHT22;37913;48.370;10.930;2023-01-23T00:31:42;-1.80;99.90
13256;DHT22;37913;48.370;10.930;2023-01-23T00:34:11;-1.70;99.90
13256;DHT22;37913;48.370;10.930;2023-01-23T00:36:40;-1.80;99.90
13256;DHT22;37913;48.370;10.930;2023-01-23T00:39:11;-1.80;99.90
13256;DHT22;37913;48.370;10.930;2023-01-23T00:41:40;-1.60;99.90
13256;DHT22;37913;48.370;10.930;2023-01-23T00:44:08;-1.90;99.90
13256;DHT22;37913;48.370;10.930;2023-01-23T00:46:35;-1.80;99.90
13256;DHT22;37913;48.370;10.930;2023-01-23T00:49:02;-1.90;99.90
13256;DHT22;37913;48.370;10.930;2023-01-23T00:51:29;-1.20;99.90
13256;DHT22;37913;48.370;10.930;2023-01-23T00:53:56;-1.90;99.90
13256;DHT22;37913;48.370;10.930;2023-01-23T00:56:23;-1.90;99.90
13256;DHT22;37913;48.370;10.930;2023-01-23T00:58:50;-2.00;99.90
13256;DHT22;37913;48.370;10.930;2023-01-23T01:01:19;-2.00;99.90
13256;DHT22;37913;48.370;10.930;2023-01-23T01:03:47;-2.00;99.90
13256;DHT22;37913;48.370;10.930;2023-01-23T01:06:15;-2.00;99.90
13256;DHT22;37913;48.370;10.930;2023-01-23T01:08:43;-2.00;99.90
13256;DHT22;37913;48.370;10.930;2023-01-23T01:11:10;-0.60;99.90
13256;DHT22;37913;48.370;10.930;2023-01-23T01:13:38;-2.00;99.90
13256;DHT22;37913;48.370;10.930;2023-01-23T01:16:06;-1.00;99.90
13256;DHT22;37913;48.370;10.930;2023-01-23T01:18:34;-2.00;99.90
13256;DHT22;37913;48.370;10.930;2023-01-23T01:21:05;-1.20;99.90
13256;DHT22;37913;48.370;10.930;2023-01-23T01:23:32;-2.00;99.90
13256;DHT22;37913;48.370;10.930;2023-01-23T01:25:59;-2.00;99.90
13256;DHT22;37913;48.370;10.930;2023-01-23T01:28:27;-1.60;99.90
13256;DHT22;37913;48.370;10.930;2023-01-23T01:30:56;-1.90;99.90
13256;DHT22;37913;48.370;10.930;2023-01-23T01:33:23;-1.30;99.90
13256;DHT22;37913;48.370;10.930;2023-01-23T01:35:51;-1.90;99.90
13256;DHT22;37913;48.370;10.930;2023-01-23T01:38:21;-1.90;99.90
13256;DHT22;37913;48.370;10.930;2023-01-23T01:40:48;-1.90;99.90
13256;DHT22;37913;48.370;10.930;2023-01-23T01:43:18;-1.90;99.90
13256;DHT22;37913;48.370;10.930;2023-01-23T01:48:42;-1.90;99.90
13256;DHT22;37913;48.370;10.930;2023-01-23T01:51:16;-1.90;99.90
13256;DHT22;37913;48.370;10.930;2023-01-23T01:53:46;-1.90;99.90
13256;DHT22;37913;48.370;10.930;2023-01-23T01:56:14;-2.00;99.90
13256;DHT22;37913;48.370;10.930;2023-01-23T01:58:51;-2.00;99.90
13256;DHT22;37913;48.370;10.930;2023-01-23T02:01:19;-2.00;99.90
13256;DHT22;37913;48.370;10.930;2023-01-23T02:03:46;-2.00;99.90
13256;DHT22;37913;48.370;10.930;2023-01-23T02:06:16;-2.00;99.90
13256;DHT22;37913;48.370;10.930;2023-01-23T02:08:47;-2.10;99.90
13256;DHT22;37913;48.370;10.930;2023-01-23T02:11:17;-2.10;99.90
13256;DHT22;37913;48.370;10.930;2023-01-23T02:13:44;-2.20;99.90
13256;DHT22;37913;48.370;10.930;2023-01-23T02:16:13;-2.20;99.90
13256;DHT22;37913;48.370;10.930;2023-01-23T02:18:43;-2.20;99.90
13256;DHT22;37913;48.370;10.930;2023-01-23T02:21:13;-2.10;99.90
13256;DHT22;37913;48.370;10.930;2023-01-23T02:23:51;-2.30;99.90
13256;DHT22;37913;48.370;10.930;2023-01-23T02:26:24;-2.50;99.90
13256;DHT22;37913;48.370;10.930;2023-01-23T02:28:53;-2.50;99.90
13256;DHT22;37913;48.370;10.930;2023-01-23T02:31:21;-2.60;99.90
13256;DHT22;37913;48.370;10.930;2023-01-23T02:33:50;-2.50;99.90
13256;DHT22;37913;48.370;10.930;2023-01-23T02:36:20;-2.80;99.90
13256;DHT22;37913;48.370;10.930;2023-01-23T02:38:53;-2.80;99.90
13256;DHT22;37913;48.370;10.930;2023-01-23T02:41:27;-2.70;99.90
13256;DHT22;37913;48.370;10.930;2023-01-23T02:43:56;-2.60;99.90
13256;DHT22;37913;48.370;10.930;2023-01-23T02:46:24;-2.50;99.90
13256;DHT22;37913;48.370;10.930;2023-01-23T02:48:51;-2.50;99.90
13256;DHT22;37913;48.370;10.930;2023-01-23T02:51:19;-2.50;99.90
13256;DHT22;37913;48.370;10.930;2023-01-23T02:53:47;-2.50;99.90
13256;DHT22;37913;48.370;10.930;2023-01-23T02:56:14;-2.40;99.90
13256;DHT22;37913;48.370;10.930;2023-01-23T02:58:43;-2.40;99.90
13256;DHT22;37913;48.370;10.930;2023-01-23T03:01:28;-2.40;99.90
13256;DHT22;37913;48.370;10.930;2023-01-23T03:03:56;-2.40;99.90
13256;DHT22;37913;48.370;10.930;2023-01-23T03:06:28;-2.40;99.90
13256;DHT22;37913;48.370;10.930;2023-01-23T03:09:04;-2.30;99.90
13256;DHT22;37913;48.370;10.930;2023-01-23T03:11:32;-2.30;99.90
13256;DHT22;37913;48.370;10.930;2023-01-23T03:14:01;-2.30;99.90
13256;DHT22;37913;48.370;10.930;2023-01-23T03:16:28;-2.40;99.90
13256;DHT22;37913;48.370;10.930;2023-01-23T03:18:55;-2.40;99.90
13256;DHT22;37913;48.370;10.930;2023-01-23T03:21:26;-2.40;99.90
13256;DHT22;37913;48.370;10.930;2023-01-23T03:23:53;-2.40;99.90
13256;DHT22;37913;48.370;10.930;2023-01-23T03:26:19;-2.40;99.90
13256;DHT22;37913;48.370;10.930;2023-01-23T03:28:52;-2.40;99.90
13256;DHT22;37913;48.370;10.930;2023-01-23T03:31:38;-2.40;99.90
13256;DHT22;37913;48.370;10.930;2023-01-23T03:34:05;-2.50;99.90
13256;DHT22;37913;48.370;10.930;2023-01-23T03:36:32;-2.00;99.90
13256;DHT22;37913;48.370;10.930;2023-01-23T03:39:02;-2.70;99.90
13256;DHT22;37913;48.370;10.930;2023-01-23T03:41:47;-2.70;99.90
13256;DHT22;37913;48.370;10.930;2023-01-23T03:44:16;-2.80;99.90
13256;DHT22;37913;48.370;10.930;2023-01-23T03:46:46;-2.90;99.90
13256;DHT22;37913;48.370;10.930;2023-01-23T03:49:13;-3.00;99.90
13256;DHT22;37913;48.370;10.930;2023-01-23T03:51:40;-3.20;99.90
13256;DHT22;37913;48.370;10.930;2023-01-23T03:54:08;-3.30;99.90
13256;DHT22;37913;48.370;10.930;2023-01-23T03:56:35;-3.30;99.90
13256;DHT22;37913;48.370;10.930;2023-01-23T03:59:03;-3.50;99.90
13256;DHT22;37913;48.370;10.930;2023-01-23T04:01:30;-3.60;99.90
13256;DHT22;37913;48.370;10.930;2023-01-23T04:03:58;-3.70;99.90
13256;DHT22;37913;48.370;10.930;2023-01-23T04:06:25;-3.60;99.90
13256;DHT22;37913;48.370;10.930;2023-01-23T04:08:53;-3.60;99.90
13256;DHT22;37913;48.370;10.930;2023-01-23T04:11:21;-3.60;99.90
13256;DHT22;37913;48.370;10.930;2023-01-23T04:13:48;-3.50;99.90
13256;DHT22;37913;48.370;10.930;2023-01-23T04:16:15;-3.40;99.90
13256;DHT22;37913;48.370;10.930;2023-01-23T04:18:42;-3.40;99.90
13256;DHT22;37913;48.370;10.930;2023-01-23T04:21:10;-3.20;99.90
13256;DHT22;37913;48.370;10.930;2023-01-23T04:23:37;-3.20;99.90
13256;DHT22;37913;48.370;10.930;2023-01-23T04:26:04;-3.10;99.90
13256;DHT22;37913;48.370;10.930;2023-01-23T04:28:33;-3.10;99.90
13256;DHT22;37913;48.370;10.930;2023-01-23T04:31:00;-3.00;99.90
13256;DHT22;37913;48.370;10.930;2023-01-23T04:33:27;-1.30;99.90
13256;DHT22;37913;48.370;10.930;2023-01-23T04:35:58;-2.80;99.90
13256;DHT22;37913;48.370;10.930;2023-01-23T04:38:27;-2.70;99.90
13256;DHT22;37913;48.370;10.930;2023-01-23T04:40:55;-2.70;99.90
13256;DHT22;37913;48.370;10.930;2023-01-23T04:43:21;-2.60;99.90
13256;DHT22;37913;48.370;10.930;2023-01-23T04:45:49;-2.60;99.90
13256;DHT22;37913;48.370;10.930;2023-01-23T04:48:17;-2.50;99.90
13256;DHT22;37913;48.370;10.930;2023-01-23T04:50:43;-2.50;99.90
13256;DHT22;37913;48.370;10.930;2023-01-23T04:53:10;-2.50;99.90
13256;DHT22;37913;48.370;10.930;2023-01-23T04:55:39;-2.50;99.90
13256;DHT22;37913;48.370;10.930;2023-01-23T04:58:07;-2.50;99.90
13256;DHT22;37913;48.370;10.930;2023-01-23T05:00:36;-2.50;99.90
13256;DHT22;37913;48.370;10.930;2023-01-23T05:03:03;-2.50;99.90
13256;DHT22;37913;48.370;10.930;2023-01-23T05:05:31;-2.40;99.90
13256;DHT22;37913;48.370;10.930;2023-01-23T05:07:58;-2.40;99.90
13256;DHT22;37913;48.370;10.930;2023-01-23T05:10:24;-2.40;99.90
13256;DHT22;37913;48.370;10.930;2023-01-23T05:12:53;-2.40;99.90
13256;DHT22;37913;48.370;10.930;2023-01-23T05:15:20;-2.40;99.90
13256;DHT22;37913;48.370;10.930;2023-01-23T05:17:47;-1.00;99.90
13256;DHT22;37913;48.370;10.930;2023-01-23T05:20:14;-2.30;99.90
13256;DHT22;37913;48.370;10.930;2023-01-23T05:22:41;-2.30;99.90
13256;DHT22;37913;48.370;10.930;2023-01-23T05:25:17;-2.30;99.90
13256;DHT22;37913;48.370;10.930;2023-01-23T05:27:45;-2.30;99.90
13256;DHT22;37913;48.370;10.930;2023-01-23T05:30:13;-2.30;99.90
13256;DHT22;37913;48.370;10.930;2023-01-23T05:32:41;-2.30;99.90
13256;DHT22;37913;48.370;10.930;2023-01-23T05:35:09;-2.20;99.90
13256;DHT22;37913;48.370;10.930;2023-01-23T05:37:36;-2.20;99.90
13256;DHT22;37913;48.370;10.930;2023-01-23T05:40:04;-2.20;99.90
13256;DHT22;37913;48.370;10.930;2023-01-23T05:42:32;-2.10;99.90
13256;DHT22;37913;48.370;10.930;2023-01-23T05:44:59;-2.10;99.90
13256;DHT22;37913;48.370;10.930;2023-01-23T05:47:28;-2.10;99.90
13256;DHT22;37913;48.370;10.930;2023-01-23T05:49:55;-2.00;99.90
13256;DHT22;37913;48.370;10.930;2023-01-23T05:52:22;-2.00;99.90
13256;DHT22;37913;48.370;10.930;2023-01-23T05:54:49;-1.90;99.90
13256;DHT22;37913;48.370;10.930;2023-01-23T05:57:16;-1.90;99.90
13256;DHT22;37913;48.370;10.930;2023-01-23T05:59:43;-1.90;99.90
13256;DHT22;37913;48.370;10.930;2023-01-23T06:02:10;-1.30;99.90
13256;DHT22;37913;48.370;10.930;2023-01-23T06:04:38;-1.80;99.90
13256;DHT22;37913;48.370;10.930;2023-01-23T06:07:12;-1.80;99.90
13256;DHT22;37913;48.370;10.930;2023-01-23T06:09:39;-1.80;99.90
13256;DHT22;37913;48.370;10.930;2023-01-23T06:12:07;-1.80;99.90
13256;DHT22;37913;48.370;10.930;2023-01-23T06:14:34;-1.80;99.90
13256;DHT22;37913;48.370;10.930;2023-01-23T06:17:00;-1.80;99.90
13256;DHT22;37913;48.370;10.930;2023-01-23T06:19:27;-1.80;99.90
13256;DHT22;37913;48.370;10.930;2023-01-23T06:21:56;-1.70;99.90
13256;DHT22;37913;48.370;10.930;2023-01-23T06:24:23;-1.70;99.90
13256;DHT22;37913;48.370;10.930;2023-01-23T06:26:50;-1.60;99.90
13256;DHT22;37913;48.370;10.930;2023-01-23T06:29:17;-1.60;99.90
13256;DHT22;37913;48.370;10.930;2023-01-23T06:31:43;-1.60;99.90
13256;DHT22;37913;48.370;10.930;2023-01-23T06:34:12;-1.60;99.90
13256;DHT22;37913;48.370;10.930;2023-01-23T06:36:40;-1.40;99.90
13256;DHT22;37913;48.370;10.930;2023-01-23T06:39:11;-1.50;99.90
13256;DHT22;37913;48.370;10.930;2023-01-23T06:41:39;-1.50;99.90
13256;DHT22;37913;48.370;10.930;2023-01-23T06:44:06;-1.50;99.90
13256;DHT22;37913;48.370;10.930;2023-01-23T06:46:33;-1.50;99.90
13256;DHT22;37913;48.370;10.930;2023-01-23T06:49:00;-0.70;99.90
13256;DHT22;37913;48.370;10.930;2023-01-23T06:51:27;-1.00;99.90
13256;DHT22;37913;48.370;10.930;2023-01-23T06:53:54;-0.80;99.90
13256;DHT22;37913;48.370;10.930;2023-01-23T06:56:22;-1.30;99.90
13256;DHT22;37913;48.370;10.930;2023-01-23T06:58:50;-1.30;99.90
13256;DHT22;37913;48.370;10.930;2023-01-23T07:01:17;-1.20;99.90
13256;DHT22;37913;48.370;10.930;2023-01-23T07:03:44;-1.20;99.90
13256;DHT22;37913;48.370;10.930;2023-01-23T07:06:14;-1.20;99.90
13256;DHT22;37913;48.370;10.930;2023-01-23T07:08:42;-0.40;99.90
13256;DHT22;37913;48.370;10.930;2023-01-23T07:11:09;-1.10;99.90
13256;DHT22;37913;48.370;10.930;2023-01-23T07:13:37;-1.10;99.90
13256;DHT22;37913;48.370;10.930;2023-01-23T07:16:05;-0.70;99.90
13256;DHT22;37913;48.370;10.930;2023-01-23T07:18:32;-1.00;99.90
13256;DHT22;37913;48.370;10.930;2023-01-23T07:21:03;-1.00;99.90
13256;DHT22;37913;48.370;10.930;2023-01-23T07:23:30;-1.00;99.90
13256;DHT22;37913;48.370;10.930;2023-01-23T07:25:58;-0.90;99.90
13256;DHT22;37913;48.370;10.930;2023-01-23T07:28:25;-0.80;99.90
13256;DHT22;37913;48.370;10.930;2023-01-23T07:30:53;-0.80;99.90
13256;DHT22;37913;48.370;10.930;2023-01-23T07:33:20;-0.80;99.90
13256;DHT22;37913;48.370;10.930;2023-01-23T07:35:47;-0.80;99.90
13256;DHT22;37913;48.370;10.930;2023-01-23T07:38:14;-0.80;99.90
13256;DHT22;37913;48.370;10.930;2023-01-23T07:40:41;-0.80;99.90
13256;DHT22;37913;48.370;10.930;2023-01-23T07:43:10;-0.80;99.90
13256;DHT22;37913;48.370;10.930;2023-01-23T07:45:37;-0.70;99.90
13256;DHT22;37913;48.370;10.930;2023-01-23T07:48:05;-0.60;99.90
13256;DHT22;37913;48.370;10.930;2023-01-23T07:50:32;-0.70;99.90
13256;DHT22;37913;48.370;10.930;2023-01-23T07:53:00;-0.60;99.90
13256;DHT22;37913;48.370;10.930;2023-01-23T07:55:27;-0.70;99.90
13256;DHT22;37913;48.370;10.930;2023-01-23T07:57:54;-0.70;99.90
13256;DHT22;37913;48.370;10.930;2023-01-23T08:00:24;-0.30;99.90
13256;DHT22;37913;48.370;10.930;2023-01-23T08:02:50;-0.70;99.90
13256;DHT22;37913;48.370;10.930;2023-01-23T08:05:19;-0.70;99.90
13256;DHT22;37913;48.370;10.930;2023-01-23T08:07:46;-0.60;99.90
13256;DHT22;37913;48.370;10.930;2023-01-23T08:10:13;-0.60;99.90
13256;DHT22;37913;48.370;10.930;2023-01-23T08:12:39;-0.60;99.90
13256;DHT22;37913;48.370;10.930;2023-01-23T08:15:07;-0.50;99.90
13256;DHT22;37913;48.370;10.930;2023-01-23T08:17:34;-0.50;99.90
13256;DHT22;37913;48.370;10.930;2023-01-23T08:20:02;-0.40;99.90
13256;DHT22;37913;48.370;10.930;2023-01-23T08:22:30;-0.40;99.90
13256;DHT22;37913;48.370;10.930;2023-01-23T08:24:57;-0.40;99.90
13256;DHT22;37913;48.370;10.930;2023-01-23T08:27:24;-0.40;99.90
13256;DHT22;37913;48.370;10.930;2023-01-23T08:29:51;-0.30;99.90
13256;DHT22;37913;48.370;10.930;2023-01-23T08:32:18;-0.30;99.90
13256;DHT22;37913;48.370;10.930;2023-01-23T08:34:46;-0.30;99.90
13256;DHT22;37913;48.370;10.930;2023-01-23T08:37:13;-0.20;99.90
13256;DHT22;37913;48.370;10.930;2023-01-23T08:39:41;-0.20;99.90
13256;DHT22;37913;48.370;10.930;2023-01-23T08:42:08;-0.30;99.90
13256;DHT22;37913;48.370;10.930;2023-01-23T08:44:35;-0.20;99.90
13256;DHT22;37913;48.370;10.930;2023-01-23T08:47:02;-0.20;99.90
13256;DHT22;37913;48.370;10.930;2023-01-23T08:49:29;-0.30;99.90
13256;DHT22;37913;48.370;10.930;2023-01-23T08:51:57;-0.40;99.90
13256;DHT22;37913;48.370;10.930;2023-01-23T08:54:26;-0.40;99.90
13256;DHT22;37913;48.370;10.930;2023-01-23T08:56:54;-0.40;99.90
13256;DHT22;37913;48.370;10.930;2023-01-23T08:59:21;-0.40;99.90
13256;DHT22;37913;48.370;10.930;2023-01-23T09:01:48;-0.10;99.90
13256;DHT22;37913;48.370;10.930;2023-01-23T09:04:16;-0.30;99.90
13256;DHT22;37913;48.370;10.930;2023-01-23T09:06:43;-0.30;99.90
13256;DHT22;37913;48.370;10.930;2023-01-23T09:09:10;-0.20;99.90
13256;DHT22;37913;48.370;10.930;2023-01-23T09:11:38;-0.20;99.90
13256;DHT22;37913;48.370;10.930;2023-01-23T09:14:06;-0.10;99.90
13256;DHT22;37913;48.370;10.930;2023-01-23T09:16:33;0.00;99.90
13256;DHT22;37913;48.370;10.930;2023-01-23T09:19:00;-0.10;99.90
13256;DHT22;37913;48.370;10.930;2023-01-23T09:21:26;0.00;99.90
13256;DHT22;37913;48.370;10.930;2023-01-23T09:23:53;0.10;99.90
13256;DHT22;37913;48.370;10.930;2023-01-23T09:26:22;0.20;99.90
13256;DHT22;37913;48.370;10.930;2023-01-23T09:28:49;0.10;99.90
13256;DHT22;37913;48.370;10.930;2023-01-23T09:31:17;0.20;99.90
13256;DHT22;37913;48.370;10.930;2023-01-23T09:33:44;0.30;99.90
13256;DHT22;37913;48.370;10.930;2023-01-23T09:36:13;0.20;99.90
13256;DHT22;37913;48.370;10.930;2023-01-23T09:38:40;0.20;99.90
13256;DHT22;37913;48.370;10.930;2023-01-23T09:41:09;0.40;99.90
13256;DHT22;37913;48.370;10.930;2023-01-23T09:43:40;0.30;99.90
13256;DHT22;37913;48.370;10.930;2023-01-23T09:46:16;0.40;99.90
13256;DHT22;37913;48.370;10.930;2023-01-23T09:48:47;0.50;99.90
13256;DHT22;37913;48.370;10.930;2023-01-23T09:51:21;0.50;99.90
13256;DHT22;37913;48.370;10.930;2023-01-23T09:53:51;0.30;99.90
13256;DHT22;37913;48.370;10.930;2023-01-23T09:56:29;0.50;99.90
13256;DHT22;37913;48.370;10.930;2023-01-23T09:59:09;0.40;99.90
13256;DHT22;37913;48.370;10.930;2023-01-23T10:01:39;0.60;99.90
13256;DHT22;37913;48.370;10.930;2023-01-23T10:04:10;0.60;99.90
13256;DHT22;37913;48.370;10.930;2023-01-23T10:07:02;0.70;99.90
13256;DHT22;37913;48.370;10.930;2023-01-23T10:09:53;0.80;99.90
13256;DHT22;37913;48.370;10.930;2023-01-23T10:12:34;1.00;99.90
13256;DHT22;37913;48.370;10.930;2023-01-23T10:15:19;1.10;99.90
13256;DHT22;37913;48.370;10.930;2023-01-23T10:17:56;1.00;99.90
13256;DHT22;37913;48.370;10.930;2023-01-23T10:23:36;1.10;99.90
13256;DHT22;37913;48.370;10.930;2023-01-23T10:26:11;0.90;99.90
13256;DHT22;37913;48.370;10.930;2023-01-23T10:28:43;0.80;99.90
13256;DHT22;37913;48.370;10.930;2023-01-23T10:31:21;1.00;99.90
13256;DHT22;37913;48.370;10.930;2023-01-23T10:33:57;1.10;99.90
13256;DHT22;37913;48.370;10.930;2023-01-23T10:36:34;1.30;99.90
13256;DHT22;37913;48.370;10.930;2023-01-23T10:39:04;1.40;99.90
13256;DHT22;37913;48.370;10.930;2023-01-23T10:41:32;1.50;99.90
13256;DHT22;37913;48.370;10.930;2023-01-23T10:44:13;1.40;99.90
13256;DHT22;37913;48.370;10.930;2023-01-23T10:46:46;1.30;99.90
13256;DHT22;37913;48.370;10.930;2023-01-23T10:49:28;1.40;99.90
13256;DHT22;37913;48.370;10.930;2023-01-23T10:51:57;1.40;99.90
13256;DHT22;37913;48.370;10.930;2023-01-23T10:54:27;1.20;99.90
13256;DHT22;37913;48.370;10.930;2023-01-23T10:56:56;1.20;99.90
13256;DHT22;37913;48.370;10.930;2023-01-23T10:59:28;1.10;99.90
13256;DHT22;37913;48.370;10.930;2023-01-23T11:02:02;1.10;99.90
13256;DHT22;37913;48.370;10.930;2023-01-23T11:04:35;1.20;99.90
13256;DHT22;37913;48.370;10.930;2023-01-23T11:07:09;1.10;99.90
13256;DHT22;37913;48.370;10.930;2023-01-23T11:09:48;1.00;99.90
13256;DHT22;37913;48.370;10.930;2023-01-23T11:12:19;1.10;99.90
13256;DHT22;37913;48.370;10.930;2023-01-23T11:14:46;1.10;99.90
13256;DHT22;37913;48.370;10.930;2023-01-23T11:17:17;1.20;99.90
13256;DHT22;37913;48.370;10.930;2023-01-23T11:19:47;2.10;99.90
13256;DHT22;37913;48.370;10.930;2023-01-23T11:22:28;1.30;99.90
13256;DHT22;37913;48.370;10.930;2023-01-23T11:24:56;1.40;99.90
13256;DHT22;37913;48.370;10.930;2023-01-23T11:27:25;1.60;99.90
13256;DHT22;37913;48.370;10.930;2023-01-23T11:32:57;1.70;99.90
13256;DHT22;37913;48.370;10.930;2023-01-23T11:35:34;1.80;99.90
13256;DHT22;37913;48.370;10.930;2023-01-23T11:38:12;1.80;99.90
13256;DHT22;37913;48.370;10.930;2023-01-23T11:40:41;1.80;99.90
13256;DHT22;37913;48.370;10.930;2023-01-23T11:43:13;1.70;99.90
13256;DHT22;37913;48.370;10.930;2023-01-23T11:45:47;1.80;99.90
13256;DHT22;37913;48.370;10.930;2023-01-23T11:48:45;1.90;99.90
13256;DHT22;37913;48.370;10.930;2023-01-23T11:51:19;2.00;99.90
13256;DHT22;37913;48.370;10.930;2023-01-23T11:53:55;2.20;99.90
13256;DHT22;37913;48.370;10.930;2023-01-23T11:56:46;2.20;99.90
13256;DHT22;37913;48.370;10.930;2023-01-23T12:02:37;1.90;99.90
13256;DHT22;37913;48.370;10.930;2023-01-23T12:05:16;2.10;99.90
13256;DHT22;37913;48.370;10.930;2023-01-23T12:07:54;2.50;99.90
13256;DHT22;37913;48.370;10.930;2023-01-23T12:10:26;2.50;99.90
13256;DHT22;37913;48.370;10.930;2023-01-23T12:13:07;2.40;99.90
13256;DHT22;37913;48.370;10.930;2023-01-23T12:15:42;2.50;99.90
13256;DHT22;37913;48.370;10.930;2023-01-23T12:18:22;2.20;99.90
13256;DHT22;37913;48.370;10.930;2023-01-23T12:20:55;2.10;99.90
13256;DHT22;37913;48.370;10.930;2023-01-23T12:23:35;2.30;99.90
13256;DHT22;37913;48.370;10.930;2023-01-23T12:26:12;2.10;99.90
13256;DHT22;37913;48.370;10.930;2023-01-23T12:28:54;2.10;99.90
13256;DHT22;37913;48.370;10.930;2023-01-23T12:31:36;2.00;99.90
13256;DHT22;37913;48.370;10.930;2023-01-23T12:34:19;1.80;99.90
13256;DHT22;37913;48.370;10.930;2023-01-23T12:37:09;1.70;99.90
13256;DHT22;37913;48.370;10.930;2023-01-23T12:39:54;1.60;99.90
13256;DHT22;37913;48.370;10.930;2023-01-23T12:42:29;1.70;99.90
13256;DHT22;37913;48.370;10.930;2023-01-23T12:45:00;1.60;99.90
13256;DHT22;37913;48.370;10.930;2023-01-23T12:47:33;1.60;99.90
13256;DHT22;37913;48.370;10.930;2023-01-23T12:50:05;1.60;99.90
13256;DHT22;37913;48.370;10.930;2023-01-23T12:52:44;1.70;99.90
13256;DHT22;37913;48.370;10.930;2023-01-23T12:55:18;1.60;99.90
13256;DHT22;37913;48.370;10.930;2023-01-23T12:57:50;1.50;99.90
13256;DHT22;37913;48.370;10.930;2023-01-23T13:00:45;1.60;99.90
13256;DHT22;37913;48.370;10.930;2023-01-23T13:03:43;1.70;99.90
13256;DHT22;37913;48.370;10.930;2023-01-23T13:06:30;1.70;99.90
13256;DHT22;37913;48.370;10.930;2023-01-23T13:09:03;1.80;99.90
13256;DHT22;37913;48.370;10.930;2023-01-23T13:11:41;1.90;99.90
13256;DHT22;37913;48.370;10.930;2023-01-23T13:14:21;1.90;99.90
13256;DHT22;37913;48.370;10.930;2023-01-23T13:16:51;2.20;99.90
13256;DHT22;37913;48.370;10.930;2023-01-23T13:19:23;2.10;99.90
13256;DHT22;37913;48.370;10.930;2023-01-23T13:22:22;2.20;99.90
13256;DHT22;37913;48.370;10.930;2023-01-23T13:24:50;2.40;99.90
13256;DHT22;37913;48.370;10.930;2023-01-23T13:27:47;2.60;99.90
13256;DHT22;37913;48.370;10.930;2023-01-23T13:30:40;2.60;99.90
13256;DHT22;37913;48.370;10.930;2023-01-23T13:33:47;2.40;99.90
13256;DHT22;37913;48.370;10.930;2023-01-23T13:39:21;2.80;99.90
13256;DHT22;37913;48.370;10.930;2023-01-23T13:45:23;2.90;99.90
13256;DHT22;37913;48.370;10.930;2023-01-23T13:48:17;2.80;99.90
13256;DHT22;37913;48.370;10.930;2023-01-23T13:51:14;2.80;99.90
13256;DHT22;37913;48.370;10.930;2023-01-23T13:53:43;2.80;99.90
13256;DHT22;37913;48.370;10.930;2023-01-23T13:56:30;2.70;99.90
13256;DHT22;37913;48.370;10.930;2023-01-23T13:59:23;2.60;99.90
13256;DHT22;37913;48.370;10.930;2023-01-23T14:02:00;2.50;99.90
13256;DHT22;37913;48.370;10.930;2023-01-23T14:04:59;2.50;99.90
13256;DHT22;37913;48.370;10.930;2023-01-23T14:07:40;2.60;99.90
13256;DHT22;37913;48.370;10.930;2023-01-23T14:10:16;2.50;99.90
13256;DHT22;37913;48.370;10.930;2023-01-23T14:12:45;2.40;99.90
13256;DHT22;37913;48.370;10.930;2023-01-23T14:15:28;2.30;99.90
13256;DHT22;37913;48.370;10.930;2023-01-23T14:18:18;2.20;99.90
13256;DHT22;37913;48.370;10.930;2023-01-23T14:20:47;2.30;99.90
13256;DHT22;37913;48.370;10.930;2023-01-23T14:23:27;2.30;99.90
13256;DHT22;37913;48.370;10.930;2023-01-23T14:25:57;2.30;99.90
13256;DHT22;37913;48.370;10.930;2023-01-23T14:28:31;2.20;99.90
13256;DHT22;37913;48.370;10.930;2023-01-23T14:31:01;2.20;99.90
13256;DHT22;37913;48.370;10.930;2023-01-23T14:33:39;2.20;99.90
13256;DHT22;37913;48.370;10.930;2023-01-23T14:36:13;2.20;99.90
13256;DHT22;37913;48.370;10.930;2023-01-23T14:38:42;2.10;99.90
13256;DHT22;37913;48.370;10.930;2023-01-23T14:41:13;2.20;99.90
13256;DHT22;37913;48.370;10.930;2023-01-23T14:43:41;2.10;99.90
13256;DHT22;37913;48.370;10.930;2023-01-23T14:46:14;2.10;99.90
13256;DHT22;37913;48.370;10.930;2023-01-23T14:48:48;2.00;99.90
13256;DHT22;37913;48.370;10.930;2023-01-23T14:51:19;2.10;99.90
13256;DHT22;37913;48.370;10.930;2023-01-23T14:53:54;1.90;99.90
13256;DHT22;37913;48.370;10.930;2023-01-23T14:56:31;2.00;99.90
13256;DHT22;37913;48.370;10.930;2023-01-23T14:59:01;1.90;99.90
13256;DHT22;37913;48.370;10.930;2023-01-23T15:01:28;1.90;99.90
13256;DHT22;37913;48.370;10.930;2023-01-23T15:03:59;1.90;99.90
13256;DHT22;37913;48.370;10.930;2023-01-23T15:06:27;2.00;99.90
13256;DHT22;37913;48.370;10.930;2023-01-23T15:09:05;1.80;99.90
13256;DHT22;37913;48.370;10.930;2023-01-23T15:11:33;1.90;99.90
13256;DHT22;37913;48.370;10.930;2023-01-23T15:14:00;1.90;99.90
13256;DHT22;37913;48.370;10.930;2023-01-23T15:16:32;1.90;99.90
13256;DHT22;37913;48.370;10.930;2023-01-23T15:19:04;1.80;99.90
13256;DHT22;37913;48.370;10.930;2023-01-23T15:21:34;1.80;99.90
13256;DHT22;37913;48.370;10.930;2023-01-23T15:26:59;2.30;99.90
13256;DHT22;37913;48.370;10.930;2023-01-23T15:29:28;1.80;99.90
13256;DHT22;37913;48.370;10.930;2023-01-23T15:31:55;1.80;99.90
13256;DHT22;37913;48.370;10.930;2023-01-23T15:34:26;1.80;99.90
13256;DHT22;37913;48.370;10.930;2023-01-23T15:36:56;1.80;99.90
13256;DHT22;37913;48.370;10.930;2023-01-23T15:39:26;1.80;99.90
13256;DHT22;37913;48.370;10.930;2023-01-23T15:41:56;1.80;99.90
13256;DHT22;37913;48.370;10.930;2023-01-23T15:44:26;1.70;99.90
13256;DHT22;37913;48.370;10.930;2023-01-23T15:46:54;1.70;99.90
13256;DHT22;37913;48.370;10.930;2023-01-23T15:49:24;1.70;99.90
13256;DHT22;37913;48.370;10.930;2023-01-23T15:51:54;1.70;99.90
13256;DHT22;37913;48.370;10.930;2023-01-23T15:54:23;1.70;99.90
13256;DHT22;37913;48.370;10.930;2023-01-23T15:56:54;1.70;99.90
13256;DHT22;37913;48.370;10.930;2023-01-23T15:59:22;1.80;99.90
13256;DHT22;37913;48.370;10.930;2023-01-23T16:01:49;1.70;99.90
13256;DHT22;37913;48.370;10.930;2023-01-23T16:04:17;1.70;99.90
13256;DHT22;37913;48.370;10.930;2023-01-23T16:06:47;1.70;99.90
13256;DHT22;37913;48.370;10.930;2023-01-23T16:09:21;1.70;99.90